Time;durP1;ratioP1;P1;durP2;ratioP2;P2;SDS_P1;SDS_P2;PMS_P1;PMS_P2;Temp;Humidity;BMP_temperature;BMP_pressure;BME280_temperature;BME280_humidity;BME280_pressure;Samples;Min_cycle;Max_cycle;Signal;HPM_P1;HPM_P2
2023/08/17 00:00:14;;;;;;;5.78;1.60;;;;;;;19.78;100.00;100522.31;5013161;28;20091;-71
2023/08/17 00:03:00;;;;;;;4.15;1.80;;;;;;;19.78;100.00;100510.19;5021604;28;20111;-71
2023/08/17 00:05:46;;;;;;;3.25;1.80;;;;;;;19.76;100.00;100512.56;5010696;28;20404;-71
2023/08/17 00:08:32;;;;;;;5.70;1.58;;;;;;;19.74;100.00;100507.28;5000754;28;20508;-71
2023/08/17 00:11:18;;;;;;;5.22;1.80;;;;;;;19.74;100.00;100504.47;5011474;28;20033;-71
2023/08/17 00:14:04;;;;;;;4.95;1.63;;;;;;;19.73;100.00;100502.03;5036721;28;20460;-71
2023/08/17 00:16:50;;;;;;;2.90;1.45;;;;;;;19.69;100.00;100507.53;5026317;28;20076;-71
2023/08/17 00:19:36;;;;;;;4.32;2.05;;;;;;;19.67;100.00;100507.09;5016209;28;20030;-71
2023/08/17 00:22:21;;;;;;;5.72;1.98;;;;;;;19.68;100.00;100500.25;5024970;28;20048;-71
2023/08/17 00:25:08;;;;;;;3.92;1.60;;;;;;;19.64;100.00;100505.75;5037425;28;20033;-71
2023/08/17 00:27:54;;;;;;;3.65;1.90;;;;;;;19.61;100.00;100506.47;5012655;28;20075;-71
2023/08/17 00:30:39;;;;;;;4.57;1.70;;;;;;;19.60;100.00;100509.63;5039522;28;20439;-71
2023/08/17 00:33:25;;;;;;;4.70;1.85;;;;;;;19.60;100.00;100509.63;5017280;28;20033;-71
2023/08/17 00:36:11;;;;;;;4.88;1.50;;;;;;;19.58;100.00;100509.16;5013463;28;20036;-71
2023/08/17 00:38:57;;;;;;;5.32;1.70;;;;;;;19.58;100.00;100511.97;5009576;28;20567;-71
2023/08/17 00:41:42;;;;;;;5.65;1.75;;;;;;;19.57;100.00;100511.16;5010317;28;20040;-71
2023/08/17 00:44:28;;;;;;;2.28;1.52;;;;;;;19.55;100.00;100518.31;5004376;28;20069;-71
2023/08/17 00:47:14;;;;;;;4.45;1.63;;;;;;;19.54;100.00;100514.69;5024697;28;20232;-71
2023/08/17 00:50:00;;;;;;;4.53;1.73;;;;;;;19.54;100.00;100511.06;5006463;28;20045;-71
2023/08/17 00:52:45;;;;;;;3.45;1.42;;;;;;;19.55;100.00;100513.50;5024048;28;20120;-71
2023/08/17 00:55:32;;;;;;;4.85;1.70;;;;;;;19.54;100.00;100511.06;5006779;28;20033;-71
2023/08/17 00:58:18;;;;;;;4.68;1.80;;;;;;;19.53;100.00;100515.03;5014521;28;20094;-71
2023/08/17 01:01:04;;;;;;;3.50;1.88;;;;;;;19.50;100.00;100510.13;5041415;28;20037;-71
2023/08/17 01:03:49;;;;;;;4.97;1.73;;;;;;;19.50;100.00;100510.13;5035998;28;20067;-71
2023/08/17 01:06:35;;;;;;;4.38;1.80;;;;;;;19.47;100.00;100506.00;4991234;28;20048;-71
2023/08/17 01:09:21;;;;;;;3.88;1.67;;;;;;;19.47;100.00;100499.56;5059385;28;20087;-71
2023/08/17 01:12:26;;;;;;;5.47;2.10;;;;;;;19.45;100.00;100490.66;4998786;28;20061;-71
2023/08/17 01:15:24;;;;;;;5.88;1.60;;;;;;;19.40;100.00;100484.09;5014179;28;20061;-71
2023/08/17 01:18:18;;;;;;;2.58;1.60;;;;;;;19.35;100.00;100487.13;4996270;28;20497;-71
2023/08/17 01:21:05;;;;;;;5.18;1.90;;;;;;;19.35;100.00;100498.41;5034380;28;20041;-71
2023/08/17 01:23:51;;;;;;;4.40;2.08;;;;;;;19.34;100.00;100502.41;5009274;28;20414;-71
2023/08/17 01:26:37;;;;;;;4.28;1.85;;;;;;;19.34;100.00;100495.97;5023212;28;20037;-71
2023/08/17 01:29:23;;;;;;;5.68;1.70;;;;;;;19.33;100.00;100488.66;5022532;28;20041;-71
2023/08/17 01:32:28;;;;;;;5.38;2.03;;;;;;;19.30;100.00;100495.00;5035084;28;20140;-71
2023/08/17 01:35:40;;;;;;;5.10;1.88;;;;;;;19.28;100.00;100481.31;5024146;28;20033;-71
2023/08/17 01:38:25;;;;;;;4.15;1.88;;;;;;;19.23;100.00;100487.16;5035091;28;20033;-71
2023/08/17 01:41:13;;;;;;;2.97;1.67;;;;;;;19.22;100.00;100488.31;5023394;28;20063;-71
2023/08/17 01:43:58;;;;;;;4.00;1.73;;;;;;;19.19;100.00;100489.03;5004286;28;20034;-71
2023/08/17 01:46:44;;;;;;;4.72;1.98;;;;;;;19.21;100.00;100492.31;5019857;28;20030;-71
2023/08/17 01:49:30;;;;;;;4.30;1.67;;;;;;;19.18;100.00;100487.41;5023206;28;20452;-71
2023/08/17 01:52:16;;;;;;;7.13;2.10;;;;;;;19.18;100.00;100484.59;4998170;28;20091;-71
2023/08/17 01:55:01;;;;;;;4.38;2.20;;;;;;;19.12;100.00;100484.00;5022959;28;20042;-71
2023/08/17 01:57:47;;;;;;;3.45;2.05;;;;;;;19.11;100.00;100482.38;5036841;28;20034;-71
2023/08/17 02:00:33;;;;;;;4.15;2.28;;;;;;;19.09;100.00;100487.53;5020402;28;20030;-71
2023/08/17 02:03:19;;;;;;;4.85;2.22;;;;;;;19.10;100.00;100482.72;5008003;28;20132;-71
2023/08/17 02:06:04;;;;;;;4.18;2.03;;;;;;;19.04;100.00;100481.31;5035721;28;20041;-71
2023/08/17 02:08:51;;;;;;;5.75;2.38;;;;;;;19.03;100.00;100479.66;5013356;28;20037;-71
2023/08/17 02:11:37;;;;;;;5.43;2.40;;;;;;;19.02;100.00;100472.38;5013680;28;20497;-71
2023/08/17 02:14:23;;;;;;;3.22;1.63;;;;;;;18.98;100.00;100477.91;5009395;28;20030;-71
2023/08/17 02:17:09;;;;;;;4.18;2.17;;;;;;;18.99;100.00;100479.53;5012241;28;20049;-71
2023/08/17 02:19:54;;;;;;;2.83;1.90;;;;;;;18.96;100.00;100481.06;5029052;28;20036;-71
2023/08/17 02:22:41;;;;;;;3.00;1.85;;;;;;;18.91;100.00;100472.84;5026671;28;20036;-71
2023/08/17 02:25:27;;;;;;;3.40;1.92;;;;;;;18.91;100.00;100480.47;5039694;28;20116;-71
2023/08/17 02:28:12;;;;;;;4.15;1.80;;;;;;;18.87;100.00;100473.91;5026048;28;20563;-71
2023/08/17 02:30:58;;;;;;;4.00;1.73;;;;;;;18.85;100.00;100468.63;5026556;28;20405;-71
2023/08/17 02:33:44;;;;;;;3.60;1.80;;;;;;;18.84;100.00;100461.38;5025576;28;20037;-71
2023/08/17 02:36:30;;;;;;;4.47;2.08;;;;;;;18.81;100.00;100456.47;5026571;28;20045;-71
2023/08/17 02:39:16;;;;;;;3.60;1.88;;;;;;;18.75;100.00;100461.50;5015273;28;20029;-71
2023/08/17 02:42:02;;;;;;;4.45;2.00;;;;;;;18.73;100.00;100465.78;5040744;28;20049;-71
2023/08/17 02:44:48;;;;;;;3.47;1.70;;;;;;;18.69;100.00;100457.25;5035013;28;20041;-71
2023/08/17 02:47:33;;;;;;;3.17;1.75;;;;;;;18.67;100.00;100456.75;5026044;28;20041;-71
2023/08/17 02:50:19;;;;;;;5.45;2.63;;;;;;;18.62;100.00;100456.16;5025489;28;20041;-71
2023/08/17 02:53:05;;;;;;;3.03;2.08;;;;;;;18.54;100.00;100446.66;5012250;28;20455;-71
2023/08/17 02:55:51;;;;;;;3.33;2.00;;;;;;;18.54;100.00;100446.66;5025848;28;20033;-71
2023/08/17 02:58:38;;;;;;;3.10;1.98;;;;;;;18.47;100.00;100449.22;5026248;28;20030;-71
2023/08/17 03:01:24;;;;;;;3.30;2.00;;;;;;;18.42;100.00;100441.84;5025650;28;20060;-71
2023/08/17 03:04:10;;;;;;;2.80;1.70;;;;;;;18.35;100.00;100447.22;5019576;28;20044;-71
2023/08/17 03:06:56;;;;;;;2.90;1.85;;;;;;;18.31;100.00;100460.34;5016554;28;20371;-71
2023/08/17 03:09:41;;;;;;;4.25;1.77;;;;;;;18.28;100.00;100458.22;5022132;28;20033;-71
2023/08/17 03:12:27;;;;;;;3.00;1.85;;;;;;;18.22;100.00;100454.81;5004128;28;20036;-71
2023/08/17 03:15:13;;;;;;;3.45;1.90;;;;;;;18.19;100.00;100447.06;5010756;28;20036;-71
2023/08/17 03:17:59;;;;;;;3.20;1.83;;;;;;;18.20;100.00;100459.13;5025040;28;20525;-71
2023/08/17 03:20:45;;;;;;;3.30;1.90;;;;;;;18.15;100.00;100442.47;5006660;28;20029;-71
2023/08/17 03:23:32;;;;;;;4.47;2.10;;;;;;;18.09;100.00;100447.50;5012202;28;20071;-71
2023/08/17 03:26:18;;;;;;;3.45;1.70;;;;;;;18.04;100.00;100458.97;5000059;28;20040;-71
2023/08/17 03:29:04;;;;;;;4.55;1.92;;;;;;;18.00;100.00;100453.22;5025337;28;20037;-71
2023/08/17 03:31:50;;;;;;;2.55;1.92;;;;;;;17.90;100.00;100456.44;5025255;28;20120;-71
2023/08/17 03:34:35;;;;;;;3.33;1.67;;;;;;;17.85;100.00;100454.66;5000872;28;20037;-71
2023/08/17 03:37:21;;;;;;;2.80;1.60;;;;;;;17.83;100.00;100448.59;5025301;28;20103;-71
2023/08/17 03:40:07;;;;;;;4.13;2.22;;;;;;;17.80;100.00;100451.25;5010944;28;20029;-71
2023/08/17 03:42:53;;;;;;;3.45;2.08;;;;;;;17.77;100.00;100447.09;5050504;28;20064;-71
2023/08/17 03:45:41;;;;;;;3.28;1.63;;;;;;;17.70;100.00;100446.84;5017981;28;20379;-71
2023/08/17 03:48:26;;;;;;;3.42;1.80;;;;;;;17.67;100.00;100452.34;5034696;28;20033;-71
2023/08/17 03:51:12;;;;;;;4.05;2.00;;;;;;;17.61;100.00;100451.72;5025261;28;20037;-71
2023/08/17 03:53:58;;;;;;;3.25;1.85;;;;;;;17.57;100.00;100443.16;5014725;28;20029;-71
2023/08/17 03:56:44;;;;;;;2.95;1.80;;;;;;;17.57;100.00;100442.31;5037551;28;20073;-71
2023/08/17 03:59:30;;;;;;;2.10;1.60;;;;;;;17.57;100.00;100447.94;5024757;28;20040;-71
2023/08/17 04:02:16;;;;;;;3.75;2.03;;;;;;;17.49;100.00;100452.47;5004908;28;20041;-71
2023/08/17 04:05:02;;;;;;;2.13;1.42;;;;;;;17.48;100.00;100448.00;5024062;28;20052;-71
2023/08/17 04:07:47;;;;;;;2.72;1.90;;;;;;;17.45;100.00;100445.91;5024841;28;20053;-71
2023/08/17 04:10:33;;;;;;;2.40;1.80;;;;;;;17.43;100.00;100445.41;5026711;28;20038;-71
2023/08/17 04:13:19;;;;;;;2.58;1.45;;;;;;;17.41;100.00;100440.16;5025184;28;20041;-71
2023/08/17 04:16:05;;;;;;;3.63;1.80;;;;;;;17.42;100.00;100438.97;5024211;28;20049;-71
2023/08/17 04:18:50;;;;;;;2.90;1.67;;;;;;;17.42;100.00;100430.56;5004406;28;20116;-71
2023/08/17 04:21:36;;;;;;;2.83;1.90;;;;;;;17.41;100.00;100436.50;4994435;28;20037;-71
2023/08/17 04:24:22;;;;;;;2.67;1.50;;;;;;;17.39;100.00;100447.28;5024939;28;20042;-71
2023/08/17 04:27:08;;;;;;;3.63;2.00;;;;;;;17.39;100.00;100436.84;5036276;28;20420;-71
2023/08/17 04:29:53;;;;;;;3.58;1.63;;;;;;;17.36;100.00;100434.75;5024167;28;20034;-71
2023/08/17 04:32:39;;;;;;;2.85;1.95;;;;;;;17.35;100.00;100435.06;5023529;28;20041;-71
2023/08/17 04:35:25;;;;;;;5.00;1.58;;;;;;;17.32;100.00;100438.56;5020597;28;20037;-71
2023/08/17 04:38:11;;;;;;;3.80;2.05;;;;;;;17.31;100.00;100440.56;5024247;28;20041;-71
2023/08/17 04:40:57;;;;;;;4.43;2.00;;;;;;;17.31;100.00;100434.13;4999489;28;20035;-71
2023/08/17 04:43:42;;;;;;;4.25;2.10;;;;;;;17.35;100.00;100435.06;5037181;28;20034;-71
2023/08/17 04:46:28;;;;;;;3.22;1.67;;;;;;;17.29;100.00;100428.00;5032618;28;20041;-71
2023/08/17 04:49:14;;;;;;;3.30;1.85;;;;;;;17.30;100.00;100436.13;5017797;28;20046;-71
2023/08/17 04:52:00;;;;;;;4.63;1.92;;;;;;;17.27;100.00;100435.94;5022998;28;20041;-71
2023/08/17 04:54:46;;;;;;;5.60;2.20;;;;;;;17.29;100.00;100430.81;5035645;28;20033;-71
2023/08/17 04:57:32;;;;;;;3.42;1.90;;;;;;;17.29;100.00;100428.00;5037493;28;20095;-71
2023/08/17 05:00:19;;;;;;;2.20;1.90;;;;;;;17.26;100.00;100425.91;5004949;28;20037;-71
2023/08/17 05:03:05;;;;;;;3.22;1.90;;;;;;;17.25;100.00;100430.69;5034620;28;20050;-71
2023/08/17 05:05:54;;;;;;;4.75;1.58;;;;;;;17.25;100.00;100424.25;5023212;28;20041;-71
2023/08/17 05:08:40;;;;;;;6.18;1.90;;;;;;;17.23;100.00;100427.41;5023603;28;20045;-71
2023/08/17 05:11:26;;;;;;;2.17;1.70;;;;;;;17.23;100.00;100429.38;5020721;28;20433;-71
2023/08/17 05:14:12;;;;;;;4.65;1.90;;;;;;;17.15;100.00;100426.28;5017451;28;20033;-71
2023/08/17 05:16:57;;;;;;;4.75;1.77;;;;;;;17.16;100.00;100427.94;5022628;28;20555;-71
2023/08/17 05:19:43;;;;;;;3.45;2.00;;;;;;;17.14;100.00;100426.66;5023501;28;20478;-71
2023/08/17 05:22:29;;;;;;;3.15;1.60;;;;;;;17.10;100.00;100429.28;5029648;28;20033;-71
2023/08/17 05:25:15;;;;;;;2.25;1.73;;;;;;;17.10;100.00;100432.09;5036033;28;20055;-71
2023/08/17 05:28:00;;;;;;;3.80;1.90;;;;;;;17.10;100.00;100428.47;4998554;28;20486;-71
2023/08/17 05:30:46;;;;;;;2.97;1.70;;;;;;;17.09;100.00;100426.84;5008079;28;20447;-71
2023/08/17 05:33:32;;;;;;;5.43;2.08;;;;;;;17.11;100.00;100428.16;5023035;28;20034;-71
2023/08/17 05:36:18;;;;;;;2.65;1.75;;;;;;;17.13;100.00;100434.25;5023336;28;20033;-71
2023/08/17 05:39:04;;;;;;;5.18;1.80;;;;;;;17.15;100.00;100429.09;5016628;28;20057;-71
2023/08/17 05:41:49;;;;;;;3.53;2.30;;;;;;;17.22;100.00;100433.34;5035301;28;20035;-71
2023/08/17 05:44:35;;;;;;;4.07;2.38;;;;;;;17.23;100.00;100430.22;5030513;28;20030;-71
2023/08/17 05:47:21;;;;;;;6.82;3.08;;;;;;;17.30;100.00;100421.22;5005783;28;20036;-71
2023/08/17 05:50:07;;;;;;;4.15;2.75;;;;;;;17.37;100.00;100413.09;5024817;28;20029;-71
2023/08/17 05:52:53;;;;;;;5.93;2.38;;;;;;;17.44;100.00;100410.56;5021473;28;20040;-71
2023/08/17 05:55:39;;;;;;;7.97;3.30;;;;;;;17.53;100.00;100416.94;5023125;28;20108;-71
2023/08/17 05:58:25;;;;;;;5.03;3.40;;;;;;;17.64;100.00;100414.53;5009908;28;20088;-71
2023/08/17 06:01:11;;;;;;;7.13;3.42;;;;;;;17.73;100.00;100415.25;5036565;28;20033;-71
2023/08/17 06:03:56;;;;;;;6.18;3.05;;;;;;;17.81;100.00;100411.59;5035273;28;20061;-71
2023/08/17 06:06:42;;;;;;;5.90;3.40;;;;;;;17.96;100.00;100410.09;4997636;28;20099;-71
2023/08/17 06:09:28;;;;;;;4.60;3.00;;;;;;;18.08;100.00;100415.78;5018003;28;20043;-71
2023/08/17 06:12:14;;;;;;;3.75;2.35;;;;;;;18.21;100.00;100408.19;5006618;28;20039;-71
2023/08/17 06:15:01;;;;;;;5.97;3.15;;;;;;;18.34;100.00;100413.84;4995000;28;20045;-71
2023/08/17 06:17:49;;;;;;;5.60;3.03;;;;;;;18.46;100.00;100417.47;5008541;28;20116;-71
2023/08/17 06:20:35;;;;;;;5.20;2.83;;;;;;;18.60;100.00;100416.31;5036116;28;20168;-71
2023/08/17 06:23:21;;;;;;;4.68;2.72;;;;;;;18.72;100.00;100417.16;5013104;28;20037;-71
2023/08/17 06:26:07;;;;;;;4.65;2.85;;;;;;;18.87;100.00;100418.47;5023305;28;20175;-71
2023/08/17 06:28:53;;;;;;;7.43;3.50;;;;;;;19.00;100.00;100412.81;5035830;28;20038;-71
2023/08/17 06:31:39;;;;;;;4.93;2.60;;;;;;;19.11;100.00;100413.97;5023306;28;20037;-71
2023/08/17 06:34:25;;;;;;;4.90;2.80;;;;;;;19.23;100.00;100419.59;4990923;28;20041;-71
2023/08/17 06:37:10;;;;;;;6.68;3.53;;;;;;;19.32;100.00;100420.28;5046184;28;20167;-71
2023/08/17 06:39:56;;;;;;;3.88;2.97;;;;;;;19.40;100.00;100416.50;5003169;28;20053;-71
2023/08/17 06:42:42;;;;;;;7.82;3.63;;;;;;;19.49;100.00;100419.16;5016704;28;20460;-71
2023/08/17 06:45:28;;;;;;;9.02;4.65;;;;;;;19.55;100.00;100422.56;5017950;28;20044;-71
2023/08/17 06:48:14;;;;;;;8.00;4.53;;;;;;;19.61;100.00;100413.50;5002900;28;20101;-71
2023/08/17 06:50:59;;;;;;;7.10;4.10;;;;;;;19.69;100.00;100420.19;5022569;28;20033;-71
2023/08/17 06:53:45;;;;;;;9.00;4.40;;;;;;;19.77;100.00;100418.41;4997821;28;20025;-71
2023/08/17 06:56:31;;;;;;;10.80;4.50;;;;;;;19.94;100.00;100420.09;5025693;28;20093;-71
2023/08/17 06:59:17;;;;;;;6.60;3.97;;;;;;;20.05;100.00;100413.56;5020487;28;20033;-71
2023/08/17 07:02:02;;;;;;;7.93;4.40;;;;;;;20.20;100.00;100409.16;5020486;28;20039;-71
2023/08/17 07:04:48;;;;;;;8.68;4.60;;;;;;;20.30;100.00;100407.78;5038082;28;20036;-72
2023/08/17 07:07:34;;;;;;;6.50;4.80;;;;;;;20.40;100.00;100401.59;5038019;28;20041;-72
2023/08/17 07:10:20;;;;;;;6.78;4.15;;;;;;;20.53;100.00;100411.66;5017090;28;20042;-71
2023/08/17 07:13:06;;;;;;;6.70;4.53;;;;;;;20.64;100.00;100408.28;5038268;28;20037;-72
2023/08/17 07:15:51;;;;;;;8.10;4.57;;;;;;;20.70;100.00;100404.81;5025588;28;20564;-72
2023/08/17 07:18:37;;;;;;;6.57;4.15;;;;;;;20.81;100.00;100407.06;5036621;28;20033;-71
2023/08/17 07:21:23;;;;;;;5.15;3.90;;;;;;;20.88;100.00;100402.44;5025985;28;20043;-68
2023/08/17 07:24:13;;;;;;;9.57;5.13;;;;;;;21.00;100.00;100397.84;5007359;28;20139;-71
2023/08/17 07:26:59;;;;;;;8.27;4.72;;;;;;;21.09;100.00;100392.81;5021706;28;20078;-71
2023/08/17 07:29:44;;;;;;;6.53;4.85;;;;;;;21.24;100.00;100393.97;5032365;28;20041;-71
2023/08/17 07:32:30;;;;;;;5.85;4.20;;;;;;;21.38;100.00;100388.66;5025637;28;20036;-71
2023/08/17 07:35:16;;;;;;;10.85;4.80;;;;;;;21.54;100.00;100383.78;5029112;28;20072;-71
2023/08/17 07:38:02;;;;;;;7.10;4.38;;;;;;;21.75;100.00;100374.09;5022033;28;20544;-71
2023/08/17 07:40:48;;;;;;;7.57;4.30;;;;;;;22.01;100.00;100377.03;5010190;28;20049;-71
2023/08/17 07:43:33;;;;;;;6.35;3.88;;;;;;;22.22;100.00;100376.63;5050901;28;20080;-71
2023/08/17 07:46:19;;;;;;;5.95;3.88;;;;;;;22.44;100.00;100377.81;5037176;28;20041;-71
2023/08/17 07:49:05;;;;;;;9.02;4.55;;;;;;;22.69;100.00;100383.09;4994274;28;20149;-71
2023/08/17 07:51:51;;;;;;;5.93;3.50;;;;;;;22.90;100.00;100374.94;5022237;28;20025;-69
2023/08/17 07:54:36;;;;;;;9.82;4.65;;;;;;;23.14;100.00;100375.72;5021751;28;20040;-69
2023/08/17 07:57:22;;;;;;;8.32;4.05;;;;;;;23.33;100.00;100381.25;5037736;28;20041;-69
2023/08/17 08:00:09;;;;;;;8.43;4.13;;;;;;;23.51;100.00;100392.00;5023440;28;20025;-69
2023/08/17 08:02:55;;;;;;;9.20;4.80;;;;;;;23.68;100.00;100388.59;5039889;28;20403;-69
2023/08/17 08:05:40;;;;;;;6.15;4.00;;;;;;;23.85;100.00;100387.19;5024260;28;20042;-69
2023/08/17 08:08:26;;;;;;;7.13;4.35;;;;;;;23.97;100.00;100386.91;5000359;28;20433;-69
2023/08/17 08:11:12;;;;;;;5.10;3.88;;;;;;;24.10;100.00;100387.47;5024728;28;20505;-69
2023/08/17 08:13:58;;;;;;;5.20;3.70;;;;;;;24.22;100.00;100383.53;5005062;28;20030;-69
2023/08/17 08:16:44;;;;;;;6.07;3.75;;;;;;;24.33;100.00;100389.31;5039456;28;20494;-69
2023/08/17 08:19:29;;;;;;;5.20;3.60;;;;;;;24.50;100.00;100391.53;5035481;28;20021;-69
2023/08/17 08:22:15;;;;;;;6.82;4.07;;;;;;;24.68;100.00;100389.66;5037051;28;20041;-69
2023/08/17 08:25:01;;;;;;;7.68;4.10;;;;;;;24.88;100.00;100386.56;5024518;28;20038;-69
2023/08/17 08:27:47;;;;;;;7.88;3.35;;;;;;;25.09;100.00;100388.72;5025276;28;20501;-69
2023/08/17 08:30:32;;;;;;;8.13;4.10;;;;;;;25.27;100.00;100377.47;5026452;28;20045;-69
2023/08/17 08:33:18;;;;;;;6.65;4.28;;;;;;;25.41;100.00;100375.53;5031976;28;20037;-69
2023/08/17 08:36:05;;;;;;;6.18;3.85;;;;;;;25.62;100.00;100368.31;5033345;28;20124;-69
2023/08/17 08:38:51;;;;;;;7.22;3.50;;;;;;;25.82;100.00;100365.94;5022473;28;20033;-69
2023/08/17 08:41:37;;;;;;;8.07;4.00;;;;;;;26.02;100.00;100370.09;5037928;28;20045;-69
2023/08/17 08:44:23;;;;;;;5.00;3.78;;;;;;;26.19;100.00;100364.84;5024073;28;20383;-69
2023/08/17 08:47:09;;;;;;;4.53;3.30;;;;;;;26.39;100.00;100368.94;5037951;28;20033;-69
2023/08/17 08:50:01;;;;;;;6.35;3.55;;;;;;;26.58;100.00;100361.22;5009696;28;20045;-69
2023/08/17 08:52:54;;;;;;;4.25;3.40;;;;;;;26.77;100.00;100362.84;5024424;28;20037;-69
2023/08/17 08:55:45;;;;;;;6.93;3.55;;;;;;;27.00;100.00;100359.56;5023070;28;20038;-69
2023/08/17 08:58:31;;;;;;;5.75;3.22;;;;;;;27.17;100.00;100361.59;5012097;28;20037;-69
2023/08/17 09:01:17;;;;;;;5.35;3.60;;;;;;;27.35;100.00;100353.78;5027046;28;20539;-69
2023/08/17 09:04:03;;;;;;;6.68;3.65;;;;;;;27.54;100.00;100360.25;5029523;28;20029;-70
2023/08/17 09:06:50;;;;;;;7.75;4.30;;;;;;;27.70;100.00;100354.06;5025325;28;20450;-69
2023/08/17 09:09:36;;;;;;;6.60;3.20;;;;;;;27.87;100.00;100353.19;5010131;28;20037;-69
2023/08/17 09:12:22;;;;;;;7.00;4.10;;;;;;;27.98;100.00;100355.97;5030347;28;20474;-69
2023/08/17 09:15:08;;;;;;;5.55;3.45;;;;;;;28.14;100.00;100364.00;5011660;28;20072;-69
2023/08/17 09:17:54;;;;;;;5.85;3.80;;;;;;;28.32;100.00;100347.56;5022590;28;20056;-70
2023/08/17 09:20:47;;;;;;;7.43;3.38;;;;;;;28.48;100.00;100349.94;5004104;28;20021;-70
2023/08/17 09:23:33;;;;;;;6.93;3.15;;;;;;;28.65;100.00;100346.09;5016395;28;20034;-69
2023/08/17 09:26:20;;;;;;;6.35;4.00;;;;;;;28.83;100.00;100345.91;5023410;28;20056;-69
2023/08/17 09:29:21;;;;;;;4.85;3.00;;;;;;;29.01;100.00;100336.38;5049176;28;20041;-69
2023/08/17 09:32:07;;;;;;;7.85;3.70;;;;;;;29.19;100.00;100342.72;5035034;28;20091;-69
2023/08/17 09:34:53;;;;;;;5.15;3.40;;;;;;;29.26;100.00;100336.13;5023307;28;20040;-70
2023/08/17 09:37:38;;;;;;;5.15;3.20;;;;;;;29.25;100.00;100331.63;5012485;28;20060;-70
2023/08/17 09:40:26;;;;;;;5.63;3.53;;;;;;;29.35;100.00;100328.63;5023075;28;20108;-70
2023/08/17 09:43:12;;;;;;;4.38;3.30;;;;;;;29.36;100.00;100335.16;5035889;28;20045;-70
2023/08/17 09:45:59;;;;;;;8.68;3.97;;;;;;;29.39;100.00;100334.28;5023305;28;20117;-70
2023/08/17 09:48:47;;;;;;;8.85;3.72;;;;;;;29.46;100.00;100333.41;5035816;28;20048;-70
2023/08/17 09:51:33;;;;;;;5.80;3.67;;;;;;;29.46;100.00;100327.69;5035482;28;20038;-70
2023/08/17 09:54:23;;;;;;;6.63;3.47;;;;;;;29.53;100.00;100321.88;5023199;28;20402;-70
2023/08/17 09:57:09;;;;;;;6.15;3.67;;;;;;;29.62;100.00;100331.56;4992831;28;20084;-71
2023/08/17 09:59:55;;;;;;;9.40;3.30;;;;;;;29.70;100.00;100329.44;5033811;28;20036;-70
2023/08/17 10:02:41;;;;;;;5.75;3.50;;;;;;;29.80;100.00;100319.88;5022198;28;20033;-70
2023/08/17 10:05:26;;;;;;;5.65;2.75;;;;;;;29.89;100.00;100330.78;5008700;28;20041;-70
2023/08/17 10:08:12;;;;;;;6.45;3.70;;;;;;;29.93;100.00;100327.91;5009914;28;20113;-70
2023/08/17 10:10:58;;;;;;;6.28;3.40;;;;;;;30.09;100.00;100330.09;5009764;28;20052;-70
2023/08/17 10:14:02;;;;;;;6.72;3.58;;;;;;;30.22;100.00;100322.56;5017000;28;20424;-70
2023/08/17 10:16:50;;;;;;;5.43;3.35;;;;;;;30.31;100.00;100325.69;5010796;28;20132;-70
2023/08/17 10:19:56;;;;;;;6.85;3.20;;;;;;;30.46;100.00;100324.19;5001163;28;20040;-69
2023/08/17 10:22:44;;;;;;;5.03;2.72;;;;;;;30.53;100.00;100331.84;5022059;28;20033;-70
2023/08/17 10:25:30;;;;;;;5.22;3.20;;;;;;;30.62;100.00;100317.78;5017137;28;20093;-70
2023/08/17 10:28:16;;;;;;;4.10;3.28;;;;;;;30.71;100.00;100314.38;5022997;28;20135;-70
2023/08/17 10:31:02;;;;;;;6.50;3.50;;;;;;;30.81;100.00;100316.22;5026343;28;20044;-70
2023/08/17 10:33:48;;;;;;;5.45;3.10;;;;;;;30.82;100.00;100317.06;5048168;28;20033;-69
2023/08/17 10:36:34;;;;;;;5.35;3.10;;;;;;;30.90;100.00;100310.75;5011089;28;20048;-70
2023/08/17 10:39:27;;;;;;;8.00;3.00;;;;;;;30.96;100.00;100313.13;5025543;28;20492;-70
2023/08/17 10:42:12;;;;;;;4.68;3.20;;;;;;;30.89;100.00;100311.97;5025236;28;20108;-70
2023/08/17 10:44:58;;;;;;;4.75;3.10;;;;;;;31.00;100.00;100308.09;5007586;28;20041;-70
2023/08/17 10:47:44;;;;;;;6.13;3.17;;;;;;;31.11;100.00;100305.84;5026499;28;20421;-70
2023/08/17 10:50:30;;;;;;;4.97;2.83;;;;;;;31.32;100.00;100308.28;5006473;28;20045;-70
2023/08/17 10:53:16;;;;;;;6.72;2.80;;;;;;;31.46;100.00;100297.78;4998871;28;20041;-70
2023/08/17 10:56:03;;;;;;;4.28;3.00;;;;;;;31.58;100.00;100303.63;5033526;28;20448;-70
2023/08/17 10:58:51;;;;;;;5.82;3.03;;;;;;;31.74;100.00;100299.22;5017103;28;20041;-70
2023/08/17 11:01:40;;;;;;;5.50;2.92;;;;;;;31.92;100.00;100299.63;5038166;28;20033;-70
2023/08/17 11:04:26;;;;;;;6.00;3.00;;;;;;;32.09;100.00;100300.44;5010637;28;20049;-70
2023/08/17 11:07:14;;;;;;;5.25;2.90;;;;;;;32.25;100.00;100302.53;5024726;28;20069;-70
2023/08/17 11:10:01;;;;;;;4.10;2.90;;;;;;;32.39;100.00;100299.28;5019028;28;20482;-70
2023/08/17 11:12:48;;;;;;;4.95;2.78;;;;;;;32.37;100.00;100301.00;5020646;28;20037;-70
2023/08/17 11:15:44;;;;;;;6.88;3.10;;;;;;;32.58;98.26;100306.22;5035917;28;20490;-70
2023/08/17 11:18:31;;;;;;;4.60;2.60;;;;;;;32.64;95.90;100297.84;5024544;28;20065;-70
2023/08/17 11:21:17;;;;;;;3.53;2.50;;;;;;;32.63;98.09;100290.50;5024648;28;20038;-70
2023/08/17 11:24:03;;;;;;;4.32;2.67;;;;;;;32.61;96.23;100293.00;5021892;28;20113;-70
2023/08/17 11:26:48;;;;;;;6.40;2.58;;;;;;;32.65;94.43;100306.03;5038050;28;20133;-70
2023/08/17 11:29:34;;;;;;;5.70;2.90;;;;;;;32.64;95.37;100298.66;5025460;28;20034;-70
2023/08/17 11:32:20;;;;;;;3.15;2.28;;;;;;;32.69;97.31;100295.25;5024941;28;20038;-70
2023/08/17 11:35:06;;;;;;;4.35;2.47;;;;;;;32.59;95.33;100296.31;5031791;28;20056;-70
2023/08/17 11:37:52;;;;;;;5.57;2.85;;;;;;;32.59;96.72;100299.19;5022432;28;20046;-70
2023/08/17 11:40:38;;;;;;;5.78;3.00;;;;;;;32.57;97.93;100292.28;5034315;28;20030;-70
2023/08/17 11:43:24;;;;;;;3.40;2.50;;;;;;;32.58;98.35;100291.03;5011493;28;20080;-70
2023/08/17 11:46:09;;;;;;;3.97;2.50;;;;;;;32.61;96.19;100279.44;5024431;28;20045;-70
2023/08/17 11:48:59;;;;;;;4.35;2.63;;;;;;;32.63;96.86;100279.00;5031132;28;20044;-70
2023/08/17 11:51:44;;;;;;;3.97;2.70;;;;;;;32.63;94.82;100274.06;5005866;28;20037;-70
2023/08/17 11:54:32;;;;;;;5.40;2.90;;;;;;;32.68;91.74;100270.63;5024802;28;20180;-70
2023/08/17 11:57:18;;;;;;;5.45;3.20;;;;;;;32.66;95.32;100275.22;5027382;28;20037;-70
2023/08/17 12:00:09;;;;;;;3.38;2.33;;;;;;;32.69;95.87;100271.44;5042183;28;20064;-70
2023/08/17 12:02:55;;;;;;;5.40;2.53;;;;;;;32.68;96.83;100275.56;5028448;28;20044;-70
2023/08/17 12:05:41;;;;;;;7.57;2.67;;;;;;;32.60;98.57;100274.16;5024875;28;20392;-70
2023/08/17 12:08:27;;;;;;;4.57;2.60;;;;;;;32.60;97.74;100272.09;5012869;28;20049;-70
2023/08/17 12:11:13;;;;;;;5.75;2.42;;;;;;;32.54;95.88;100271.03;5009699;28;20048;-70
2023/08/17 12:13:58;;;;;;;4.90;2.70;;;;;;;32.54;99.29;100265.28;5036964;28;20029;-70
2023/08/17 12:16:48;;;;;;;5.78;2.58;;;;;;;32.55;100.00;100255.38;4992855;28;20411;-70
2023/08/17 12:19:34;;;;;;;5.43;2.30;;;;;;;32.59;96.25;100258.16;5014947;28;20052;-70
2023/08/17 12:22:19;;;;;;;5.25;2.60;;;;;;;32.64;94.96;100258.41;5024399;28;20045;-70
2023/08/17 12:25:06;;;;;;;6.15;2.53;;;;;;;32.69;97.62;100255.00;5010119;28;20021;-70
2023/08/17 12:27:52;;;;;;;5.53;2.90;;;;;;;32.72;98.65;100253.28;5037547;28;20041;-70
2023/08/17 12:30:37;;;;;;;4.57;2.60;;;;;;;32.79;99.89;100252.25;5024153;28;20036;-70
2023/08/17 12:33:23;;;;;;;4.80;2.65;;;;;;;32.89;97.53;100246.22;5038889;28;20496;-70
2023/08/17 12:36:09;;;;;;;4.30;2.67;;;;;;;33.06;92.38;100241.22;5006313;28;20026;-70
2023/08/17 12:38:55;;;;;;;6.40;2.70;;;;;;;33.10;92.85;100233.31;5035969;28;20029;-70
2023/08/17 12:41:40;;;;;;;4.80;2.60;;;;;;;33.18;94.42;100230.22;5004902;28;20044;-70
2023/08/17 12:44:26;;;;;;;7.40;2.70;;;;;;;33.12;93.77;100224.22;5017664;28;20124;-70